createdAt,value
2023-01-11T00:00:20.614Z,1.04
2023-01-11T00:01:20.722Z,1.04
2023-01-11T00:02:20.916Z,1.04
2023-01-11T00:03:20.926Z,1.04
2023-01-11T00:04:21.098Z,1.04
2023-01-11T00:05:21.167Z,1.04
2023-01-11T00:06:21.368Z,1.04
2023-01-11T00:07:21.433Z,1.04
2023-01-11T00:08:21.558Z,1.04
2023-01-11T00:09:21.662Z,1.04
2023-01-11T00:10:21.760Z,1.04
2023-01-11T00:11:21.920Z,1.04
2023-01-11T00:12:22.035Z,1.04
2023-01-11T00:13:22.115Z,1.04
2023-01-11T00:14:22.216Z,1.04
2023-01-11T00:15:22.334Z,1.04
2023-01-11T00:16:22.538Z,1.04
2023-01-11T00:17:22.573Z,1.04
2023-01-11T00:18:22.725Z,1.04
2023-01-11T00:19:22.875Z,1.04
2023-01-11T00:20:22.976Z,1.04
2023-01-11T00:21:23.101Z,1.04
2023-01-11T00:22:23.230Z,1.04
2023-01-11T00:23:23.383Z,1.04
2023-01-11T00:24:23.481Z,1.04
2023-01-11T00:25:23.585Z,1.04
2023-01-11T00:26:23.683Z,1.04
2023-01-11T00:27:23.840Z,1.04
2023-01-11T00:28:23.941Z,1.04
2023-01-11T00:29:24.037Z,1.04
2023-01-11T00:30:24.146Z,1.04
2023-01-11T00:31:24.312Z,1.04
2023-01-11T00:32:24.346Z,1.04
2023-01-11T00:33:24.445Z,1.04
2023-01-11T00:34:24.593Z,1.04
2023-01-11T00:35:24.728Z,1.04
2023-01-11T00:36:24.848Z,1.04
2023-01-11T00:37:24.961Z,1.04
2023-01-11T00:38:25.059Z,1.04
2023-01-11T00:39:25.157Z,1.04
2023-01-11T00:40:25.306Z,1.04
2023-01-11T00:41:25.434Z,1.04
2023-01-11T00:42:25.558Z,1.04
2023-01-11T00:43:25.669Z,1.04
2023-01-11T00:44:25.808Z,1.04
2023-01-11T00:45:25.915Z,1.04
2023-01-11T00:46:26.091Z,1.04
2023-01-11T00:47:26.167Z,1.04
2023-01-11T00:48:26.271Z,1.04
2023-01-11T00:49:26.439Z,1.04
2023-01-11T00:50:26.519Z,1.04
2023-01-11T00:51:26.681Z,1.04
2023-01-11T00:52:26.772Z,1.04
2023-01-11T00:53:26.883Z,1.04
2023-01-11T00:54:27.007Z,1.04
2023-01-11T00:55:27.134Z,1.04
2023-01-11T00:56:27.277Z,1.04
2023-01-11T00:57:27.380Z,1.04
2023-01-11T00:58:27.486Z,1.04
2023-01-11T00:59:27.635Z,1.04
2023-01-11T01:00:27.732Z,1.04
2023-01-11T01:01:27.930Z,1.04
2023-01-11T01:02:28.044Z,1.04
2023-01-11T01:03:28.138Z,1.04
2023-01-11T01:04:28.240Z,1.04
2023-01-11T01:05:28.400Z,1.04
2023-01-11T01:06:28.584Z,1.04
2023-01-11T01:07:28.643Z,1.04
2023-01-11T01:08:28.810Z,1.04
2023-01-11T01:09:28.909Z,1.04
2023-01-11T01:10:29.023Z,1.04
2023-01-11T01:11:29.208Z,1.04
2023-01-11T01:12:29.353Z,1.04
2023-01-11T01:13:29.502Z,1.04
2023-01-11T01:14:29.619Z,1.04
2023-01-11T01:15:29.707Z,1.04
2023-01-11T01:16:29.813Z,1.04
2023-01-11T01:17:29.961Z,1.04
2023-01-11T01:18:30.063Z,1.04
2023-01-11T01:19:30.227Z,1.04
2023-01-11T01:20:30.368Z,1.04
2023-01-11T01:21:30.517Z,1.04
2023-01-11T01:22:30.670Z,1.04
2023-01-11T01:23:30.776Z,1.04
2023-01-11T01:24:31.001Z,1.04
2023-01-11T01:25:30.972Z,1.04
2023-01-11T01:26:31.084Z,1.04
2023-01-11T01:27:31.222Z,1.04
2023-01-11T01:28:31.329Z,1.04
2023-01-11T01:29:31.432Z,1.04
2023-01-11T01:30:31.531Z,1.04
2023-01-11T01:31:31.702Z,1.04
2023-01-11T01:32:31.733Z,1.04
2023-01-11T01:33:31.881Z,1.04
2023-01-11T01:34:31.995Z,1.04
2023-01-11T01:35:32.148Z,1.04
2023-01-11T01:36:32.238Z,1.04
2023-01-11T01:37:32.354Z,1.04
2023-01-11T01:38:32.499Z,1.04
2023-01-11T01:39:32.642Z,1.04
2023-01-11T01:40:32.748Z,1.04
2023-01-11T01:41:32.845Z,1.04
2023-01-11T01:42:32.957Z,1.04
2023-01-11T01:43:33.104Z,1.04
2023-01-11T01:44:33.250Z,1.04
2023-01-11T01:45:33.400Z,1.04
2023-01-11T01:46:33.554Z,1.04
2023-01-11T01:47:33.657Z,1.04
2023-01-11T01:48:33.756Z,1.04
2023-01-11T01:49:33.867Z,1.04
2023-01-11T01:50:33.956Z,1.04
2023-01-11T01:51:34.064Z,1.04
2023-01-11T01:52:34.218Z,1.04
2023-01-11T01:53:34.312Z,1.04
2023-01-11T01:54:34.422Z,1.04
2023-01-11T01:55:34.513Z,1.04
2023-01-11T01:56:34.618Z,1.04
2023-01-11T01:57:34.729Z,1.04
2023-01-11T01:58:34.819Z,1.04
2023-01-11T01:59:34.925Z,1.04
2023-01-11T02:00:35.026Z,1.04
2023-01-11T02:01:35.207Z,1.04
2023-01-11T02:02:35.357Z,1.04
2023-01-11T02:03:35.425Z,1.04
2023-01-11T02:04:35.585Z,1.04
2023-01-11T02:05:35.689Z,1.04
2023-01-11T02:06:35.805Z,1.04
2023-01-11T02:07:35.885Z,1.04
2023-01-11T02:08:36.032Z,1.04
2023-01-11T02:09:36.136Z,1.04
2023-01-11T02:10:36.287Z,1.04
2023-01-11T02:11:36.385Z,1.04
2023-01-11T02:12:36.541Z,1.04
2023-01-11T02:13:36.656Z,1.04
2023-01-11T02:14:36.746Z,1.04
2023-01-11T02:15:36.855Z,1.04
2023-01-11T02:16:36.945Z,1.04
2023-01-11T02:17:37.052Z,1.04
2023-01-11T02:18:37.228Z,1.04
2023-01-11T02:19:37.353Z,1.04
2023-01-11T02:20:37.454Z,1.04
2023-01-11T02:21:37.559Z,1.04
2023-01-11T02:22:37.658Z,1.04
2023-01-11T02:23:37.842Z,1.04
2023-01-11T02:24:37.960Z,1.04
2023-01-11T02:25:38.108Z,1.04
2023-01-11T02:26:38.265Z,1.04
2023-01-11T02:27:38.423Z,1.04
2023-01-11T02:28:38.517Z,1.04
2023-01-11T02:29:38.616Z,1.04
2023-01-11T02:30:38.726Z,1.04
2023-01-11T02:31:38.845Z,1.04
2023-01-11T02:32:38.967Z,1.04
2023-01-11T02:33:39.072Z,1.04
2023-01-11T02:34:39.171Z,1.04
2023-01-11T02:35:39.279Z,1.04
2023-01-11T02:36:39.377Z,1.04
2023-01-11T02:37:39.476Z,1.04
2023-01-11T02:38:39.577Z,1.04
2023-01-11T02:39:39.685Z,1.04
2023-01-11T02:40:39.788Z,1.04
2023-01-11T02:41:39.883Z,1.04
2023-01-11T02:42:39.993Z,1.04
2023-01-11T02:43:40.141Z,1.04
2023-01-11T02:44:40.238Z,1.04
2023-01-11T02:45:40.389Z,1.04
2023-01-11T02:46:40.526Z,1.04
2023-01-11T02:47:40.652Z,1.04
2023-01-11T02:48:40.797Z,1.04
2023-01-11T02:49:40.919Z,1.04
2023-01-11T02:50:41.046Z,1.04
2023-01-11T02:51:41.149Z,1.04
2023-01-11T02:52:41.297Z,1.04
2023-01-11T02:53:41.459Z,1.04
2023-01-11T02:54:41.553Z,1.04
2023-01-11T02:55:41.704Z,1.04
2023-01-11T02:56:41.816Z,1.04
2023-01-11T02:57:41.917Z,1.04
2023-01-11T02:58:42.061Z,1.04
2023-01-11T02:59:42.179Z,1.04
2023-01-11T03:00:42.311Z,1.04
2023-01-11T03:01:42.464Z,1.04
2023-01-11T03:02:42.609Z,1.04
2023-01-11T03:03:42.668Z,1.04
2023-01-11T03:04:42.771Z,1.04
2023-01-11T03:05:42.869Z,1.04
2023-01-11T03:06:43.037Z,1.04
2023-01-11T03:07:43.122Z,1.04
2023-01-11T03:08:43.276Z,1.04
2023-01-11T03:09:43.425Z,1.04
2023-01-11T03:10:43.523Z,1.04
2023-01-11T03:11:43.676Z,1.04
2023-01-11T03:12:43.782Z,1.04
2023-01-11T03:13:43.926Z,1.04
2023-01-11T03:14:44.128Z,1.04
2023-01-11T03:15:44.250Z,1.04
2023-01-11T03:16:44.290Z,1.04
2023-01-11T03:17:44.440Z,1.04
2023-01-11T03:18:44.534Z,1.04
2023-01-11T03:19:44.691Z,1.04
2023-01-11T03:20:44.841Z,1.04
2023-01-11T03:21:44.947Z,1.04
2023-01-11T03:22:45.046Z,1.04
2023-01-11T03:23:45.208Z,1.04
2023-01-11T03:24:45.293Z,1.04
2023-01-11T03:25:45.394Z,1.04
2023-01-11T03:26:45.500Z,1.04
2023-01-11T03:27:45.653Z,1.04
2023-01-11T03:28:45.755Z,1.04
2023-01-11T03:29:45.853Z,1.04
2023-01-11T03:30:45.954Z,1.04
2023-01-11T03:31:46.059Z,1.04
2023-01-11T03:32:46.156Z,1.04
2023-01-11T03:33:46.267Z,1.04
2023-01-11T03:34:46.359Z,1.04
2023-01-11T03:35:46.510Z,1.04
2023-01-11T03:36:46.667Z,1.04
2023-01-11T03:37:46.763Z,1.04
2023-01-11T03:38:46.864Z,1.04
2023-01-11T03:39:46.981Z,1.04
2023-01-11T03:40:47.120Z,1.04
2023-01-11T03:41:47.229Z,1.04
2023-01-11T03:42:47.380Z,1.04
2023-01-11T03:43:47.526Z,1.04
2023-01-11T03:44:47.682Z,1.04
2023-01-11T03:45:47.782Z,1.04
2023-01-11T03:46:47.961Z,1.04
2023-01-11T03:47:48.033Z,1.04
2023-01-11T03:48:48.134Z,1.04
2023-01-11T03:49:48.232Z,1.04
2023-01-11T03:50:48.336Z,1.04
2023-01-11T03:51:48.445Z,1.04
2023-01-11T03:52:48.587Z,1.04
2023-01-11T03:53:48.687Z,1.04
2023-01-11T03:54:48.794Z,1.04
2023-01-11T03:55:48.888Z,1.04
2023-01-11T03:56:49.047Z,1.04
2023-01-11T03:57:49.194Z,1.04
2023-01-11T03:58:49.297Z,1.04
2023-01-11T03:59:49.402Z,1.04
2023-01-11T04:00:49.593Z,1.04
2023-01-11T04:01:49.604Z,1.04
2023-01-11T04:02:49.714Z,1.04
2023-01-11T04:03:49.863Z,1.04
2023-01-11T04:04:50.037Z,1.04
2023-01-11T04:05:50.166Z,1.04
2023-01-11T04:06:50.332Z,1.04
2023-01-11T04:07:50.415Z,1.04
2023-01-11T04:08:50.513Z,1.04
2023-01-11T04:09:50.677Z,1.04
2023-01-11T04:10:50.808Z,1.04
2023-01-11T04:11:50.912Z,1.04
2023-01-11T04:12:51.070Z,1.04
2023-01-11T04:13:51.170Z,1.04
2023-01-11T04:14:51.315Z,1.04
2023-01-11T04:15:51.467Z,1.04
2023-01-11T04:16:51.571Z,1.04
2023-01-11T04:17:51.675Z,1.04
2023-01-11T04:18:51.823Z,1.04
2023-01-11T04:19:51.927Z,1.04
2023-01-11T04:20:52.026Z,1.04
2023-01-11T04:21:52.191Z,1.04
2023-01-11T04:22:52.329Z,1.04
2023-01-11T04:23:52.456Z,1.04
2023-01-11T04:24:52.545Z,1.04
2023-01-11T04:25:52.696Z,1.04
2023-01-11T04:26:52.788Z,1.04
2023-01-11T04:27:52.895Z,1.04
2023-01-11T04:28:54.353Z,1.04
2023-01-11T04:29:53.143Z,1.04
2023-01-11T04:30:53.291Z,1.04
2023-01-11T04:31:53.463Z,1.04
2023-01-11T04:32:53.500Z,1.04
2023-01-11T04:33:53.604Z,1.04
2023-01-11T04:34:53.748Z,1.04
2023-01-11T04:35:53.848Z,1.04
2023-01-11T04:36:54.002Z,1.04
2023-01-11T04:37:54.103Z,1.04
2023-01-11T04:38:54.256Z,1.04
2023-01-11T04:39:54.355Z,1.04
2023-01-11T04:40:54.523Z,1.04
2023-01-11T04:41:54.611Z,1.04
2023-01-11T04:42:54.758Z,1.04
2023-01-11T04:43:54.919Z,1.04
2023-01-11T04:44:55.024Z,1.04
2023-01-11T04:45:55.218Z,1.04
2023-01-11T04:46:55.316Z,1.04
2023-01-11T04:47:55.483Z,1.04
2023-01-11T04:48:55.618Z,1.04
2023-01-11T04:49:55.716Z,1.04
2023-01-11T04:50:55.876Z,1.04
2023-01-11T04:51:55.980Z,1.04
2023-01-11T04:52:56.073Z,1.04
2023-01-11T04:53:56.227Z,1.04
2023-01-11T04:54:56.329Z,1.04
2023-01-11T04:55:56.483Z,1.04
2023-01-11T04:56:56.589Z,1.04
2023-01-11T04:57:56.695Z,1.04
2023-01-11T04:58:56.835Z,1.04
2023-01-11T04:59:56.992Z,1.04
2023-01-11T05:00:57.183Z,1.04
2023-01-11T05:01:57.242Z,1.04
2023-01-11T05:02:57.396Z,1.04
2023-01-11T05:03:57.529Z,1.04
2023-01-11T05:04:57.592Z,1.04
2023-01-11T05:05:57.698Z,1.04
2023-01-11T05:06:57.820Z,1.04
2023-01-11T05:07:57.957Z,1.04
2023-01-11T05:08:58.051Z,1.04
2023-01-11T05:09:58.153Z,1.04
2023-01-11T05:10:58.304Z,1.04
2023-01-11T05:11:58.450Z,1.04
2023-01-11T05:12:58.609Z,1.04
2023-01-11T05:13:58.759Z,1.04
2023-01-11T05:14:58.861Z,1.04
2023-01-11T05:15:58.960Z,1.04
2023-01-11T05:16:59.074Z,1.04
2023-01-11T05:17:59.213Z,1.04
2023-01-11T05:18:59.398Z,1.04
2023-01-11T05:19:59.516Z,1.04
2023-01-11T05:20:59.670Z,1.04
2023-01-11T05:21:59.774Z,1.04
2023-01-11T05:22:59.923Z,1.04
2023-01-11T05:24:00.027Z,1.04
2023-01-11T05:25:00.145Z,1.04
2023-01-11T05:26:00.277Z,1.04
2023-01-11T05:27:00.387Z,1.04
2023-01-11T05:28:00.477Z,1.04
2023-01-11T05:29:00.637Z,1.04
2023-01-11T05:30:00.727Z,1.04
2023-01-11T05:31:00.830Z,1.04
2023-01-11T05:32:01.080Z,1.04
2023-01-11T05:33:01.132Z,1.04
2023-01-11T05:34:01.235Z,1.04
2023-01-11T05:35:01.334Z,1.04
2023-01-11T05:36:01.441Z,1.04
2023-01-11T05:37:01.555Z,1.04
2023-01-11T05:38:01.695Z,1.04
2023-01-11T05:39:01.861Z,1.04
2023-01-11T05:40:01.998Z,1.04
2023-01-11T05:41:02.148Z,1.04
2023-01-11T05:42:02.257Z,1.04
2023-01-11T05:43:02.362Z,1.04
2023-01-11T05:44:02.473Z,1.04
2023-01-11T05:45:02.575Z,1.04
2023-01-11T05:46:02.711Z,1.04
2023-01-11T05:47:02.806Z,1.04
2023-01-11T05:48:02.908Z,1.04
2023-01-11T05:49:03.006Z,1.04
2023-01-11T05:50:03.106Z,1.04
2023-01-11T05:51:03.214Z,1.04
2023-01-11T05:52:03.317Z,1.04
2023-01-11T05:53:03.466Z,1.04
2023-01-11T05:54:03.568Z,1.04
2023-01-11T05:55:03.664Z,1.04
2023-01-11T05:56:03.768Z,1.04
2023-01-11T05:57:03.865Z,1.04
2023-01-11T05:58:04.035Z,1.04
2023-01-11T05:59:04.167Z,1.04
2023-01-11T06:00:04.240Z,1.04
2023-01-11T06:01:04.401Z,1.04
2023-01-11T06:02:04.504Z,1.04
2023-01-11T06:03:04.662Z,1.04
2023-01-11T06:04:04.731Z,1.04
2023-01-11T06:05:04.883Z,1.04
2023-01-11T06:06:05.033Z,1.04
2023-01-11T06:07:05.200Z,1.04
2023-01-11T06:08:05.235Z,1.04
2023-01-11T06:09:05.338Z,1.04
2023-01-11T06:10:05.474Z,1.04
2023-01-11T06:11:05.591Z,1.04
2023-01-11T06:12:05.694Z,1.04
2023-01-11T06:13:05.796Z,1.04
2023-01-11T06:14:05.947Z,1.04
2023-01-11T06:15:06.052Z,1.04
2023-01-11T06:16:06.204Z,1.04
2023-01-11T06:17:06.352Z,1.04
2023-01-11T06:18:06.499Z,1.04
2023-01-11T06:19:06.607Z,1.04
2023-01-11T06:20:06.704Z,1.04
2023-01-11T06:21:06.857Z,1.04
2023-01-11T06:22:06.961Z,1.04
2023-01-11T06:23:07.110Z,1.04
2023-01-11T06:24:07.211Z,1.04
2023-01-11T06:25:07.313Z,1.04
2023-01-11T06:26:07.461Z,2
2023-01-11T06:27:07.561Z,2
2023-01-11T06:28:07.665Z,2
2023-01-11T06:29:07.821Z,2
2023-01-11T06:30:07.922Z,2
2023-01-11T06:31:08.120Z,3.04
2023-01-11T06:32:08.178Z,3.04
2023-01-11T06:33:08.308Z,4
2023-01-11T06:34:08.423Z,5.04
2023-01-11T06:35:08.525Z,6
2023-01-11T06:36:08.660Z,7.04
2023-01-11T06:37:08.728Z,8
2023-01-11T06:38:08.831Z,9.04
2023-01-11T06:39:08.941Z,10
2023-01-11T06:40:09.029Z,12
2023-01-11T06:41:09.158Z,14
2023-01-11T06:42:09.232Z,15.04
2023-01-11T06:43:09.390Z,17.04
2023-01-11T06:44:09.499Z,19.04
2023-01-11T06:45:09.639Z,20
2023-01-11T06:46:09.774Z,22
2023-01-11T06:47:09.897Z,24
2023-01-11T06:48:09.993Z,28
2023-01-11T06:49:10.096Z,33.04
2023-01-11T06:50:10.248Z,38
2023-01-11T06:51:10.347Z,44
2023-01-11T06:52:10.506Z,50
2023-01-11T06:53:10.603Z,58
2023-01-11T06:54:10.764Z,69.04
2023-01-11T06:55:10.857Z,80
2023-01-11T06:56:10.984Z,105.04
2023-01-11T06:57:11.103Z,118
2023-01-11T06:58:11.212Z,130
2023-01-11T06:59:11.347Z,157.04
2023-01-11T07:00:11.408Z,183.04
2023-01-11T07:01:11.529Z,213.12
2023-01-11T07:02:11.671Z,249.12
2023-01-11T07:03:11.771Z,276
2023-01-11T07:04:11.918Z,305.12
2023-01-11T07:05:12.054Z,339.2
2023-01-11T07:06:12.119Z,363.2
2023-01-11T07:07:12.225Z,379.2
2023-01-11T07:08:12.324Z,399.04
2023-01-11T07:09:12.428Z,409.28
2023-01-11T07:10:12.530Z,401.28
2023-01-11T07:11:12.680Z,399.04
2023-01-11T07:12:12.729Z,405.12
2023-01-11T07:13:12.831Z,423.04
2023-01-11T07:14:12.954Z,446.08
2023-01-11T07:15:13.085Z,465.28
2023-01-11T07:16:13.266Z,489.28
2023-01-11T07:17:13.338Z,506.24
2023-01-11T07:18:13.488Z,532.16
2023-01-11T07:19:13.590Z,552
2023-01-11T07:20:13.701Z,576
2023-01-11T07:21:13.843Z,609.28
2023-01-11T07:22:13.942Z,668.16
2023-01-11T07:23:14.053Z,733.44
2023-01-11T07:24:14.209Z,791.04
2023-01-11T07:25:14.308Z,837.12
2023-01-11T07:26:14.474Z,898.56
2023-01-11T07:27:14.605Z,945.28
2023-01-11T07:28:14.706Z,968.32
2023-01-11T07:29:14.857Z,1007.36
2023-01-11T07:30:15.013Z,1053.44
2023-01-11T07:31:15.130Z,1130.24
2023-01-11T07:32:15.219Z,1182.08
2023-01-11T07:33:15.319Z,1222.4
2023-01-11T07:34:15.412Z,1264
2023-01-11T07:35:15.518Z,1283.2
2023-01-11T07:36:15.616Z,1395.2
2023-01-11T07:37:27.934Z,1461.76
2023-01-11T07:38:15.874Z,1539.84
2023-01-11T07:39:15.987Z,1632
2023-01-11T07:40:16.131Z,1660.16
2023-01-11T07:41:16.171Z,1704.96
2023-01-11T07:42:16.324Z,1739.52
2023-01-11T07:43:16.446Z,1788.16
2023-01-11T07:44:16.534Z,1882.88
2023-01-11T07:45:16.769Z,1943.04
2023-01-11T07:46:16.862Z,2019.84
2023-01-11T07:47:16.929Z,2086.4
2023-01-11T07:48:17.079Z,2136.32
2023-01-11T07:49:17.190Z,2208
2023-01-11T07:50:17.314Z,2234.88
2023-01-11T07:51:17.444Z,2237.44
2023-01-11T07:52:17.541Z,2242.56
2023-01-11T07:53:17.640Z,2246.4
2023-01-11T07:54:17.796Z,2227.2
2023-01-11T07:55:17.899Z,2201.6
2023-01-11T07:56:17.996Z,2186.24
2023-01-11T07:57:18.098Z,2197.76
2023-01-11T07:58:18.204Z,2213.12
2023-01-11T07:59:18.301Z,2186.24
2023-01-11T08:00:18.414Z,2158.08
2023-01-11T08:01:18.501Z,2152.96
2023-01-11T08:02:18.721Z,2181.12
2023-01-11T08:03:18.956Z,2176
2023-01-11T08:04:18.904Z,2178.56
2023-01-11T08:05:19.013Z,2186.24
2023-01-11T08:06:19.116Z,2215.68
2023-01-11T08:07:19.217Z,2250.24
2023-01-11T08:08:19.329Z,2245.12
2023-01-11T08:09:19.470Z,2268.16
2023-01-11T08:10:19.612Z,2336
2023-01-11T08:11:19.774Z,2366.72
2023-01-11T08:12:19.927Z,2332.16
2023-01-11T08:13:20.024Z,2250.24
2023-01-11T08:14:20.175Z,2195.2
2023-01-11T08:15:22.274Z,2117.12
2023-01-11T08:16:20.450Z,2099.2
2023-01-11T08:17:20.530Z,2122.24
2023-01-11T08:18:20.632Z,2135.04
2023-01-11T08:19:20.726Z,2088.96
2023-01-11T08:20:20.895Z,2048
2023-01-11T08:21:21.034Z,2051.84
2023-01-11T08:22:21.206Z,2040.32
2023-01-11T08:23:21.331Z,2076.16
2023-01-11T08:24:21.434Z,2182.4
2023-01-11T08:25:21.539Z,2232.32
2023-01-11T08:26:21.688Z,2272
2023-01-11T08:27:21.789Z,2355.2
2023-01-11T08:28:21.900Z,2451.2
2023-01-11T08:29:21.989Z,2574.08
2023-01-11T08:30:22.152Z,2657.28
2023-01-11T08:31:22.334Z,2693.12
2023-01-11T08:32:22.373Z,2659.84
2023-01-11T08:33:22.462Z,2615.04
2023-01-11T08:34:22.608Z,2636.8
2023-01-11T08:35:22.759Z,2782.72
2023-01-11T08:36:22.861Z,2920.96
2023-01-11T08:37:23.008Z,2987.52
2023-01-11T08:38:23.128Z,2913.28
2023-01-11T08:39:23.264Z,2833.92
2023-01-11T08:40:24.303Z,2846.72
2023-01-11T08:41:23.528Z,2903.04
2023-01-11T08:42:23.664Z,2967.04
2023-01-11T08:43:23.773Z,3105.28
2023-01-11T08:44:33.560Z,3322.88
2023-01-11T08:45:23.976Z,3512.32
2023-01-11T08:46:24.156Z,3688.96
2023-01-11T08:47:24.340Z,3660.8
2023-01-11T08:48:24.373Z,3438.08
2023-01-11T08:49:24.475Z,3310.08
2023-01-11T08:50:24.585Z,3271.68
2023-01-11T08:51:24.679Z,3345.92
2023-01-11T08:52:24.774Z,3484.16
2023-01-11T08:53:25.049Z,3619.84
2023-01-11T08:54:25.232Z,3653.12
2023-01-11T08:55:25.279Z,3676.16
2023-01-11T08:56:25.388Z,3799.04
2023-01-11T08:57:25.496Z,3924.48
2023-01-11T08:58:25.639Z,4065.28
2023-01-11T08:59:25.742Z,4160
2023-01-11T09:00:25.900Z,4277.76
2023-01-11T09:01:26.022Z,4362.24
2023-01-11T09:02:26.110Z,4423.68
2023-01-11T09:03:26.245Z,4418.56
2023-01-11T09:04:26.344Z,4349.44
2023-01-11T09:05:26.443Z,4344.32
2023-01-11T09:06:26.543Z,4398.08
2023-01-11T09:07:26.659Z,4469.76
2023-01-11T09:08:26.751Z,4490.24
2023-01-11T09:09:26.851Z,4464.64
2023-01-11T09:10:27.037Z,4449.28
2023-01-11T09:11:27.103Z,4423.68
2023-01-11T09:12:27.210Z,4405.76
2023-01-11T09:13:27.356Z,4405.76
2023-01-11T09:14:27.499Z,4403.2
2023-01-11T09:15:27.611Z,4354.56
2023-01-11T09:16:27.712Z,4326.4
2023-01-11T09:17:27.832Z,4334.08
2023-01-11T09:18:27.913Z,4369.92
2023-01-11T09:19:28.090Z,4408.32
2023-01-11T09:20:28.171Z,4423.68
2023-01-11T09:21:28.332Z,4431.36
2023-01-11T09:22:28.467Z,4454.4
2023-01-11T09:23:28.582Z,4480
2023-01-11T09:24:28.728Z,4490.24
2023-01-11T09:25:28.850Z,4533.76
2023-01-11T09:26:28.977Z,4600.32
2023-01-11T09:27:29.128Z,4712.96
2023-01-11T09:28:29.283Z,4784.64
2023-01-11T09:29:29.547Z,4894.72
2023-01-11T09:30:29.533Z,5020.16
2023-01-11T09:31:29.727Z,5132.8
2023-01-11T09:32:29.809Z,5253.12
2023-01-11T09:33:29.891Z,5345.28
2023-01-11T09:34:30.047Z,5442.56
2023-01-11T09:35:30.137Z,5591.04
2023-01-11T09:36:30.254Z,5708.8
2023-01-11T09:37:30.397Z,5872.64
2023-01-11T09:38:30.559Z,6016
2023-01-11T09:39:30.644Z,6174.72
2023-01-11T09:40:30.750Z,6374.4
2023-01-11T09:41:30.853Z,6553.6
2023-01-11T09:42:30.956Z,6768.64
2023-01-11T09:43:31.063Z,6901.76
2023-01-11T09:44:31.154Z,7019.52
2023-01-11T09:45:31.324Z,7096.32
2023-01-11T09:46:31.462Z,7132.16
2023-01-11T09:47:31.518Z,7162.88
2023-01-11T09:48:31.662Z,7183.36
2023-01-11T09:49:31.829Z,7234.56
2023-01-11T09:50:31.913Z,7265.28
2023-01-11T09:51:32.024Z,7275.52
2023-01-11T09:52:32.164Z,7290.88
2023-01-11T09:53:32.322Z,7265.28
2023-01-11T09:54:32.465Z,7280.64
2023-01-11T09:55:32.581Z,7342.08
2023-01-11T09:56:32.670Z,7393.28
2023-01-11T09:57:32.827Z,7408.64
2023-01-11T09:58:32.918Z,7388.16
2023-01-11T09:59:33.023Z,7316.48
2023-01-11T10:00:33.194Z,7152.64
2023-01-11T10:01:33.236Z,6876.16
2023-01-11T10:02:33.343Z,6712.32
2023-01-11T10:03:33.494Z,6656
2023-01-11T10:04:33.648Z,6584.32
2023-01-11T10:05:33.683Z,6369.28
2023-01-11T10:06:33.834Z,5995.52
2023-01-11T10:07:33.949Z,5688.32
2023-01-11T10:18:21.891Z,6333.44
2023-01-11T10:18:53.223Z,6425.6
2023-01-11T10:19:40.152Z,6522.88
2023-01-11T10:20:35.606Z,6568.96
2023-01-11T10:21:35.628Z,6717.44
2023-01-11T10:22:35.708Z,6896.64
2023-01-11T10:23:35.876Z,7106.56
2023-01-11T10:24:36.010Z,7219.2
2023-01-11T10:25:36.161Z,7326.72
2023-01-11T10:26:36.360Z,7429.12
2023-01-11T10:27:36.484Z,7531.52
2023-01-11T10:28:36.565Z,7664.64
2023-01-11T10:29:36.733Z,7797.76
2023-01-11T10:30:36.830Z,7946.24
2023-01-11T10:31:37.008Z,8166.4
2023-01-11T10:32:37.124Z,8427.52
2023-01-11T10:33:37.229Z,8668.16
2023-01-11T10:34:37.332Z,9016.319
2023-01-11T10:35:37.432Z,9256.96
2023-01-11T10:36:37.532Z,9661.439
2023-01-11T10:37:37.679Z,10035.2
2023-01-11T10:38:37.830Z,10342.399
2023-01-11T10:39:37.981Z,10567.68
2023-01-11T10:40:38.138Z,10567.68
2023-01-11T10:41:38.235Z,10275.84
2023-01-11T10:42:38.340Z,10112
2023-01-11T10:43:38.449Z,9948.16
2023-01-11T10:44:38.546Z,9896.96
2023-01-11T10:45:38.716Z,9840.64
2023-01-11T10:46:38.797Z,10019.84
2023-01-11T10:47:38.946Z,10117.12
2023-01-11T10:48:39.054Z,10035.2
2023-01-11T10:49:39.216Z,9937.92
2023-01-11T10:50:39.299Z,9937.92
2023-01-11T10:51:39.409Z,10086.399
2023-01-11T10:52:39.557Z,10332.16
2023-01-11T10:53:39.712Z,10536.96
2023-01-11T10:54:39.761Z,10496
2023-01-11T10:55:39.923Z,10414.08
2023-01-11T10:56:42.649Z,10347.52
2023-01-11T10:57:59.299Z,10301.439
2023-01-11T10:58:40.217Z,10265.6
2023-01-11T10:59:40.372Z,10342.399
2023-01-11T11:00:40.534Z,10414.08
2023-01-11T11:01:40.732Z,10403.84
2023-01-11T11:02:40.766Z,10368
2023-01-11T11:03:40.918Z,10383.359
2023-01-11T11:04:41.026Z,10424.319
2023-01-11T11:05:41.134Z,10475.52
2023-01-11T11:06:41.225Z,10680.319
2023-01-11T11:07:41.376Z,10833.92
2023-01-11T11:08:41.480Z,12042.239
2023-01-11T11:09:41.577Z,11960.319
2023-01-11T11:10:41.726Z,11192.319
2023-01-11T11:11:41.826Z,11141.12
2023-01-11T11:12:41.932Z,11151.359
2023-01-11T11:13:43.341Z,11192.319
2023-01-11T11:14:42.139Z,11264
2023-01-11T11:15:42.303Z,11325.439
2023-01-11T11:16:42.503Z,11448.319
2023-01-11T11:17:42.547Z,11468.8
2023-01-11T11:18:42.641Z,11530.239
2023-01-11T11:19:42.809Z,11499.52
2023-01-11T11:20:42.844Z,11427.84
2023-01-11T11:21:42.999Z,11253.76
2023-01-11T11:22:43.099Z,11069.439
2023-01-11T11:23:43.282Z,10864.64
2023-01-11T11:24:43.352Z,10711.04
2023-01-11T11:25:43.551Z,10967.04
2023-01-11T11:26:43.573Z,11571.2
2023-01-11T11:27:43.659Z,11622.399
2023-01-11T11:28:43.763Z,11417.6
2023-01-11T11:29:43.925Z,11253.76
2023-01-11T11:30:44.058Z,11100.16
2023-01-11T11:31:44.270Z,10782.72
2023-01-11T11:32:44.287Z,10670.08
2023-01-11T11:33:44.369Z,10772.479
2023-01-11T11:34:44.463Z,10741.76
2023-01-11T11:35:44.625Z,10618.88
2023-01-11T11:36:44.726Z,10649.6
2023-01-11T11:37:44.821Z,10649.6
2023-01-11T11:38:44.969Z,10649.6
2023-01-11T11:39:45.125Z,10700.8
2023-01-11T11:40:45.240Z,10721.279
2023-01-11T11:41:45.329Z,10649.6
2023-01-11T11:42:45.427Z,10598.399
2023-01-11T11:43:45.586Z,10455.04
2023-01-11T11:44:45.675Z,10147.84
2023-01-11T11:45:45.868Z,9948.16
2023-01-11T11:46:45.998Z,9809.92
2023-01-11T11:47:46.086Z,9625.6
2023-01-11T11:48:46.183Z,9702.399
2023-01-11T11:49:46.337Z,9963.52
2023-01-11T11:50:46.562Z,10101.76
2023-01-11T11:51:46.636Z,9912.319
2023-01-11T11:52:46.788Z,9774.08
2023-01-11T11:53:46.942Z,9646.08
2023-01-11T11:54:47.090Z,9548.8
2023-01-11T11:55:47.240Z,9272.319
2023-01-11T11:56:47.392Z,8975.359
2023-01-11T11:57:47.496Z,8770.56
2023-01-11T11:58:47.654Z,8683.52
2023-01-11T11:59:47.766Z,8519.68
2023-01-11T12:00:47.915Z,8253.44
2023-01-11T12:01:48.093Z,8028.16
2023-01-11T12:02:48.157Z,7792.64
2023-01-11T12:03:48.264Z,7321.6
2023-01-11T12:04:48.466Z,7096.32
2023-01-11T12:05:48.464Z,6881.28
2023-01-11T12:06:49.337Z,6579.2
2023-01-11T12:07:54.574Z,6333.44
2023-01-11T12:08:48.768Z,5934.08
2023-01-11T12:09:48.862Z,5637.12
2023-01-11T12:10:48.968Z,5199.36
2023-01-11T12:11:49.115Z,4979.2
2023-01-11T12:12:49.267Z,4971.52
2023-01-11T12:13:49.426Z,4945.92
2023-01-11T12:14:49.571Z,4764.16
2023-01-11T12:15:49.674Z,4444.16
2023-01-11T12:16:49.842Z,4270.08
2023-01-11T12:17:49.872Z,4085.76
2023-01-11T12:18:50.041Z,3857.92
2023-01-11T12:19:50.176Z,3663.36
2023-01-11T12:20:50.287Z,3627.52
2023-01-11T12:21:50.381Z,3632.64
2023-01-11T12:22:50.531Z,3678.72
2023-01-11T12:23:50.638Z,3484.16
2023-01-11T12:24:50.739Z,3499.52
2023-01-11T12:25:50.897Z,3502.08
2023-01-11T12:26:51.140Z,3233.28
2023-01-11T12:27:51.140Z,3095.04
2023-01-11T12:28:51.248Z,3031.04
2023-01-11T12:29:51.415Z,3092.48
2023-01-11T12:30:51.514Z,3089.92
2023-01-11T12:31:51.647Z,2954.24
2023-01-11T12:32:51.754Z,2977.28
2023-01-11T12:33:51.857Z,2974.72
2023-01-11T12:34:52.014Z,3008
2023-01-11T12:35:52.114Z,2984.96
2023-01-11T12:36:52.215Z,2890.24
2023-01-11T12:37:52.310Z,2944
2023-01-11T12:38:52.415Z,3033.6
2023-01-11T12:39:52.504Z,3031.04
2023-01-11T12:40:52.699Z,3159.04
2023-01-11T12:41:52.768Z,3179.52
2023-01-11T12:42:52.869Z,2910.72
2023-01-11T12:43:53.019Z,2905.6
2023-01-11T12:44:53.163Z,3000.32
2023-01-11T12:45:53.319Z,2903.04
2023-01-11T12:46:53.472Z,2821.12
2023-01-11T12:47:53.655Z,2767.36
2023-01-11T12:48:53.781Z,2693.12
2023-01-11T12:49:54.994Z,2598.4
2023-01-11T12:50:53.975Z,2552.32
2023-01-11T12:51:54.075Z,2522.88
2023-01-11T12:52:54.175Z,2478.08
2023-01-11T12:53:54.289Z,2558.72
2023-01-11T12:54:54.426Z,2551.04
2023-01-11T12:55:54.585Z,2576.64
2023-01-11T12:56:54.684Z,2565.12